createdAt,value
2022-10-05T00:00:27.511Z,64.48
2022-10-05T00:01:27.521Z,63.61
2022-10-05T00:02:27.497Z,63.00
2022-10-05T00:03:27.482Z,64.81
2022-10-05T00:04:27.467Z,62.50
2022-10-05T00:05:28.461Z,64.41
2022-10-05T00:06:27.454Z,63.06
2022-10-05T00:07:27.451Z,64.62
2022-10-05T00:08:27.425Z,62.28
2022-10-05T00:09:27.458Z,64.20
2022-10-05T00:10:27.404Z,64.66
2022-10-05T00:11:27.395Z,61.60
2022-10-05T00:12:27.454Z,64.72
2022-10-05T00:13:27.370Z,62.61
2022-10-05T00:14:27.376Z,63.10
2022-10-05T00:15:27.349Z,63.64
2022-10-05T00:16:27.393Z,63.30
2022-10-05T00:17:27.345Z,62.91
2022-10-05T00:18:27.318Z,60.73
2022-10-05T00:19:27.311Z,62.73
2022-10-05T00:20:27.300Z,60.84
2022-10-05T00:21:27.287Z,61.38
2022-10-05T00:22:27.288Z,61.74
2022-10-05T00:23:27.265Z,61.51
2022-10-05T00:24:27.260Z,62.62
2022-10-05T00:25:27.259Z,65.45
2022-10-05T00:26:27.239Z,62.87
2022-10-05T00:27:27.236Z,62.39
2022-10-05T00:28:27.274Z,57.03
2022-10-05T00:29:27.204Z,62.13
2022-10-05T00:30:27.193Z,63.22
2022-10-05T00:31:27.319Z,61.49
2022-10-05T00:32:27.182Z,63.64
2022-10-05T00:33:27.215Z,59.67
2022-10-05T00:34:27.157Z,58.93
2022-10-05T00:35:27.139Z,61.57
2022-10-05T00:36:27.132Z,56.88
2022-10-05T00:37:27.136Z,62.16
2022-10-05T00:38:27.116Z,62.17
2022-10-05T00:39:27.098Z,62.74
2022-10-05T00:40:27.085Z,59.44
2022-10-05T00:41:27.080Z,62.05
2022-10-05T00:42:27.082Z,63.00
2022-10-05T00:43:27.060Z,62.40
2022-10-05T00:44:27.045Z,62.53
2022-10-05T00:45:27.062Z,61.82
2022-10-05T00:46:27.045Z,61.88
2022-10-05T00:47:28.020Z,62.38
2022-10-05T00:48:26.998Z,60.78
2022-10-05T00:49:27.009Z,64.20
2022-10-05T00:50:26.977Z,61.98
2022-10-05T00:51:26.972Z,60.78
2022-10-05T00:52:26.968Z,59.03
2022-10-05T00:53:26.945Z,62.12
2022-10-05T00:54:26.933Z,62.07
2022-10-05T00:55:26.922Z,61.48
2022-10-05T00:56:26.908Z,59.70
2022-10-05T00:57:26.907Z,62.41
2022-10-05T00:58:26.891Z,57.36
2022-10-05T00:59:26.882Z,59.20
2022-10-05T01:00:26.872Z,62.52
2022-10-05T01:01:26.908Z,61.65
2022-10-05T01:02:26.950Z,62.73
2022-10-05T01:03:26.841Z,61.69
2022-10-05T01:04:26.825Z,59.97
2022-10-05T01:05:26.820Z,61.55
2022-10-05T01:06:26.809Z,61.93
2022-10-05T01:07:26.814Z,62.39
2022-10-05T01:08:26.794Z,63.02
2022-10-05T01:09:26.798Z,63.55
2022-10-05T01:10:26.771Z,61.74
2022-10-05T01:11:26.760Z,64.80
2022-10-05T01:12:26.766Z,62.90
2022-10-05T01:13:26.734Z,65.49
2022-10-05T01:14:26.726Z,63.13
2022-10-05T01:15:26.707Z,62.09
2022-10-05T01:16:27.771Z,62.45
2022-10-05T01:17:26.716Z,61.90
2022-10-05T01:18:26.687Z,62.79
2022-10-05T01:19:26.694Z,62.47
2022-10-05T01:20:26.668Z,62.91
2022-10-05T01:21:26.655Z,61.78
2022-10-05T01:22:26.642Z,62.03
2022-10-05T01:23:26.653Z,59.88
2022-10-05T01:24:26.645Z,58.49
2022-10-05T01:25:26.623Z,62.17
2022-10-05T01:26:26.600Z,61.61
2022-10-05T01:27:26.596Z,62.57
2022-10-05T01:28:26.669Z,63.54
2022-10-05T01:29:26.568Z,61.37
2022-10-05T01:30:26.569Z,62.06
2022-10-05T01:31:26.577Z,62.77
2022-10-05T01:32:26.548Z,61.77
2022-10-05T01:33:26.547Z,63.82
2022-10-05T01:34:26.522Z,62.85
2022-10-05T01:35:26.520Z,64.09
2022-10-05T01:36:26.539Z,61.23
2022-10-05T01:37:26.502Z,61.25
2022-10-05T01:38:26.482Z,61.25
2022-10-05T01:39:26.476Z,59.09
2022-10-05T01:40:26.461Z,61.43
2022-10-05T01:41:26.473Z,60.66
2022-10-05T01:42:26.459Z,61.27
2022-10-05T01:43:26.430Z,61.67
2022-10-05T01:44:26.441Z,62.25
2022-10-05T01:45:26.583Z,60.36
2022-10-05T01:46:26.430Z,61.43
2022-10-05T01:47:26.410Z,61.34
2022-10-05T01:48:26.409Z,57.36
2022-10-05T01:49:26.393Z,62.71
2022-10-05T01:50:26.356Z,57.63
2022-10-05T01:51:26.448Z,60.92
2022-10-05T01:52:26.346Z,60.75
2022-10-05T01:53:26.324Z,61.70
2022-10-05T01:54:26.348Z,61.49
2022-10-05T01:55:26.338Z,60.37
2022-10-05T01:56:26.302Z,57.75
2022-10-05T01:57:26.337Z,63.11
2022-10-05T01:58:26.277Z,63.28
2022-10-05T01:59:26.259Z,60.04
2022-10-05T02:00:26.256Z,58.67
2022-10-05T02:01:26.325Z,61.47
2022-10-05T02:02:26.297Z,63.17
2022-10-05T02:03:26.213Z,58.13
2022-10-05T02:04:59.858Z,60.56
2022-10-05T02:05:28.198Z,62.42
2022-10-05T02:06:26.192Z,64.46
2022-10-05T02:07:26.200Z,63.32
2022-10-05T02:08:26.174Z,60.80
2022-10-05T02:09:26.165Z,63.11
2022-10-05T02:10:26.151Z,61.03
2022-10-05T02:11:26.145Z,59.96
2022-10-05T02:12:26.148Z,59.84
2022-10-05T02:13:26.150Z,62.34
2022-10-05T02:14:26.113Z,62.30
2022-10-05T02:15:26.102Z,59.67
2022-10-05T02:16:26.139Z,62.48
2022-10-05T02:17:26.095Z,63.19
2022-10-05T02:18:26.081Z,62.77
2022-10-05T02:19:26.060Z,62.10
2022-10-05T02:20:26.065Z,62.95
2022-10-05T02:21:26.042Z,63.21
2022-10-05T02:22:26.029Z,63.16
2022-10-05T02:23:26.086Z,63.16
2022-10-05T02:24:26.012Z,63.60
2022-10-05T02:25:26.000Z,63.69
2022-10-05T02:26:25.990Z,63.41
2022-10-05T02:27:25.974Z,58.28
2022-10-05T02:28:26.015Z,61.38
2022-10-05T02:29:25.959Z,60.89
2022-10-05T02:30:25.960Z,62.23
2022-10-05T02:31:26.014Z,63.62
2022-10-05T02:32:25.933Z,63.52
2022-10-05T02:33:25.929Z,62.07
2022-10-05T02:34:25.904Z,60.84
2022-10-05T02:35:25.901Z,61.54
2022-10-05T02:36:25.889Z,62.25
2022-10-05T02:37:25.907Z,60.87
2022-10-05T02:38:26.063Z,60.65
2022-10-05T02:39:25.853Z,60.89
2022-10-05T02:40:25.841Z,58.89
2022-10-05T02:41:25.834Z,60.77
2022-10-05T02:42:25.826Z,62.23
2022-10-05T02:43:25.831Z,61.52
2022-10-05T02:44:25.806Z,62.10
2022-10-05T02:45:25.818Z,61.90
2022-10-05T02:46:26.846Z,60.02
2022-10-05T02:47:25.779Z,61.49
2022-10-05T02:48:25.787Z,62.41
2022-10-05T02:49:25.757Z,59.43
2022-10-05T02:50:25.741Z,62.25
2022-10-05T02:51:25.739Z,61.10
2022-10-05T02:52:25.726Z,61.42
2022-10-05T02:53:25.730Z,60.13
2022-10-05T02:54:25.708Z,61.29
2022-10-05T02:55:25.691Z,62.74
2022-10-05T02:56:25.681Z,61.62
2022-10-05T02:57:25.672Z,61.73
2022-10-05T02:58:25.685Z,58.13
2022-10-05T02:59:25.667Z,60.46
2022-10-05T03:00:25.641Z,59.47
2022-10-05T03:01:25.686Z,60.65
2022-10-05T03:02:25.807Z,60.95
2022-10-05T03:03:25.617Z,62.06
2022-10-05T03:04:25.596Z,62.67
2022-10-05T03:05:25.586Z,59.07
2022-10-05T03:06:25.579Z,61.44
2022-10-05T03:07:25.566Z,62.06
2022-10-05T03:08:25.567Z,60.88
2022-10-05T03:09:25.543Z,60.51
2022-10-05T03:10:25.536Z,62.88
2022-10-05T03:11:25.525Z,60.95
2022-10-05T03:12:25.549Z,60.87
2022-10-05T03:13:25.514Z,58.86
2022-10-05T03:14:25.490Z,61.63
2022-10-05T03:15:25.491Z,61.42
2022-10-05T03:16:25.557Z,60.19
2022-10-05T03:17:25.478Z,61.61
2022-10-05T03:18:29.936Z,58.27
2022-10-05T03:19:27.447Z,60.90
2022-10-05T03:20:25.439Z,60.46
2022-10-05T03:21:25.432Z,61.06
2022-10-05T03:22:25.422Z,60.80
2022-10-05T03:23:25.418Z,63.16
2022-10-05T03:24:25.398Z,62.63
2022-10-05T03:25:25.388Z,60.04
2022-10-05T03:26:25.377Z,60.03
2022-10-05T03:27:25.365Z,61.50
2022-10-05T03:28:25.470Z,62.31
2022-10-05T03:29:25.355Z,62.74
2022-10-05T03:30:25.334Z,61.52
2022-10-05T03:31:25.368Z,59.91
2022-10-05T03:32:25.312Z,62.07
2022-10-05T03:33:25.318Z,62.51
2022-10-05T03:34:25.288Z,60.22
2022-10-05T03:35:25.325Z,61.57
2022-10-05T03:36:25.269Z,62.83
2022-10-05T03:37:25.258Z,62.53
2022-10-05T03:38:25.268Z,62.51
2022-10-05T03:39:25.242Z,61.43
2022-10-05T03:40:25.229Z,62.42
2022-10-05T03:41:25.222Z,61.12
2022-10-05T03:42:25.212Z,61.13
2022-10-05T03:43:25.215Z,61.45
2022-10-05T03:44:25.194Z,60.26
2022-10-05T03:45:25.181Z,60.67
2022-10-05T03:46:25.182Z,62.20
2022-10-05T03:47:25.162Z,62.80
2022-10-05T03:48:25.166Z,60.83
2022-10-05T03:49:25.143Z,62.79
2022-10-05T03:50:25.129Z,60.00
2022-10-05T03:51:25.119Z,59.78
2022-10-05T03:52:25.116Z,62.95
2022-10-05T03:53:25.116Z,61.46
2022-10-05T03:54:25.089Z,61.15
2022-10-05T03:55:25.088Z,61.57
2022-10-05T03:56:25.074Z,59.46
2022-10-05T03:57:25.060Z,60.81
2022-10-05T03:58:25.171Z,61.68
2022-10-05T03:59:28.813Z,61.87
2022-10-05T04:00:26.023Z,62.17
2022-10-05T04:01:25.069Z,60.69
2022-10-05T04:02:25.046Z,60.15
2022-10-05T04:03:25.005Z,62.53
2022-10-05T04:04:24.990Z,62.21
2022-10-05T04:05:24.979Z,61.73
2022-10-05T04:06:25.016Z,61.65
2022-10-05T04:07:24.961Z,61.89
2022-10-05T04:08:24.960Z,59.98
2022-10-05T04:09:24.934Z,62.55
2022-10-05T04:10:24.929Z,61.48
2022-10-05T04:11:24.914Z,62.34
2022-10-05T04:12:24.908Z,60.79
2022-10-05T04:13:24.917Z,61.44
2022-10-05T04:14:24.898Z,63.19
2022-10-05T04:15:24.881Z,62.39
2022-10-05T04:16:24.908Z,61.93
2022-10-05T04:17:24.862Z,61.78
2022-10-05T04:18:24.865Z,60.86
2022-10-05T04:19:24.842Z,60.41
2022-10-05T04:20:24.836Z,60.04
2022-10-05T04:21:24.842Z,62.81
2022-10-05T04:22:24.821Z,62.10
2022-10-05T04:23:24.813Z,61.35
2022-10-05T04:24:24.793Z,60.66
2022-10-05T04:25:24.781Z,58.78
2022-10-05T04:26:24.774Z,61.90
2022-10-05T04:27:24.765Z,61.57
2022-10-05T04:28:28.295Z,61.51
2022-10-05T04:29:26.744Z,61.49
2022-10-05T04:30:24.732Z,61.53
2022-10-05T04:31:24.770Z,60.82
2022-10-05T04:32:24.713Z,60.95
2022-10-05T04:33:24.712Z,58.37
2022-10-05T04:34:24.695Z,60.68
2022-10-05T04:35:24.685Z,61.88
2022-10-05T04:36:24.669Z,60.45
2022-10-05T04:37:24.675Z,59.22
2022-10-05T04:38:24.664Z,61.12
2022-10-05T04:39:24.638Z,59.83
2022-10-05T04:40:24.636Z,60.72
2022-10-05T04:41:24.646Z,59.71
2022-10-05T04:42:24.610Z,61.89
2022-10-05T04:43:24.614Z,62.04
2022-10-05T04:44:24.587Z,60.81
2022-10-05T04:45:24.588Z,61.73
2022-10-05T04:46:24.616Z,61.88
2022-10-05T04:47:24.564Z,62.13
2022-10-05T04:48:24.566Z,61.55
2022-10-05T04:49:24.565Z,59.85
2022-10-05T04:50:24.535Z,60.49
2022-10-05T04:51:24.525Z,59.84
2022-10-05T04:52:24.521Z,61.53
2022-10-05T04:53:24.557Z,60.20
2022-10-05T04:54:24.501Z,61.13
2022-10-05T04:55:24.490Z,60.40
2022-10-05T04:56:24.473Z,60.66
2022-10-05T04:57:24.464Z,60.38
2022-10-05T04:58:24.473Z,60.08
2022-10-05T04:59:24.478Z,60.31
2022-10-05T05:00:24.442Z,61.77
2022-10-05T05:01:24.504Z,60.42
2022-10-05T05:02:24.427Z,58.10
2022-10-05T05:03:24.489Z,59.61
2022-10-05T05:04:24.402Z,60.56
2022-10-05T05:05:24.391Z,60.64
2022-10-05T05:06:24.382Z,58.93
2022-10-05T05:07:24.373Z,60.14
2022-10-05T05:08:24.376Z,57.65
2022-10-05T05:09:24.352Z,60.73
2022-10-05T05:10:24.343Z,60.28
2022-10-05T05:11:24.783Z,58.49
2022-10-05T05:12:25.319Z,60.10
2022-10-05T05:13:24.338Z,60.41
2022-10-05T05:14:24.304Z,60.09
2022-10-05T05:15:24.293Z,60.90
2022-10-05T05:16:24.346Z,60.48
2022-10-05T05:17:25.274Z,60.27
2022-10-05T05:18:24.275Z,60.13
2022-10-05T05:19:24.252Z,60.07
2022-10-05T05:20:24.280Z,60.00
2022-10-05T05:21:24.229Z,60.25
2022-10-05T05:22:24.215Z,59.42
2022-10-05T05:23:25.223Z,58.79
2022-10-05T05:24:24.210Z,59.91
2022-10-05T05:25:24.184Z,59.62
2022-10-05T05:26:25.184Z,58.77
2022-10-05T05:27:24.173Z,60.53
2022-10-05T05:28:24.254Z,59.05
2022-10-05T05:29:24.195Z,58.92
2022-10-05T05:30:24.142Z,60.38
2022-10-05T05:31:24.285Z,58.67
2022-10-05T05:32:24.138Z,59.72
2022-10-05T05:33:24.115Z,59.71
2022-10-05T05:34:24.100Z,59.75
2022-10-05T05:35:24.089Z,57.92
2022-10-05T05:36:24.084Z,57.23
2022-10-05T05:37:24.091Z,57.10
2022-10-05T05:38:24.064Z,58.36
2022-10-05T05:39:24.054Z,58.94
2022-10-05T05:40:24.042Z,57.89
2022-10-05T05:41:24.034Z,57.74
2022-10-05T05:42:24.019Z,58.50
2022-10-05T05:43:24.015Z,58.99
2022-10-05T05:44:24.000Z,58.83
2022-10-05T05:45:23.991Z,58.35
2022-10-05T05:46:38.776Z,56.45
2022-10-05T05:47:26.002Z,59.34
2022-10-05T05:48:23.971Z,57.59
2022-10-05T05:49:23.953Z,57.30
2022-10-05T05:50:23.942Z,58.68
2022-10-05T05:51:23.964Z,57.22
2022-10-05T05:52:23.925Z,58.66
2022-10-05T05:53:23.912Z,58.49
2022-10-05T05:54:24.902Z,58.13
2022-10-05T05:55:29.021Z,59.67
2022-10-05T05:56:25.888Z,57.03
2022-10-05T05:57:23.873Z,57.71
2022-10-05T05:58:23.874Z,58.82
2022-10-05T05:59:23.853Z,57.62
2022-10-05T06:00:23.847Z,59.06
2022-10-05T06:01:32.788Z,54.20
2022-10-05T06:02:25.888Z,58.86
2022-10-05T06:03:23.973Z,59.27
2022-10-05T06:04:23.800Z,57.49
2022-10-05T06:05:23.794Z,56.07
2022-10-05T06:06:23.784Z,55.50
2022-10-05T06:07:28.046Z,55.93
2022-10-05T06:08:25.780Z,56.40
2022-10-05T06:09:23.759Z,57.26
2022-10-05T06:10:23.744Z,55.47
2022-10-05T06:11:23.771Z,55.24
2022-10-05T06:12:23.722Z,55.73
2022-10-05T06:13:23.727Z,56.15
2022-10-05T06:14:23.701Z,57.78
2022-10-05T06:15:23.695Z,56.61
2022-10-05T06:16:23.708Z,55.78
2022-10-05T06:17:23.675Z,58.50
2022-10-05T06:18:23.674Z,56.99
2022-10-05T06:19:23.652Z,58.53
2022-10-05T06:20:23.637Z,57.45
2022-10-05T06:21:23.633Z,57.64
2022-10-05T06:22:23.631Z,54.74
2022-10-05T06:23:23.622Z,57.35
2022-10-05T06:24:23.628Z,57.60
2022-10-05T06:25:23.645Z,58.33
2022-10-05T06:26:23.589Z,57.58
2022-10-05T06:27:23.566Z,57.42
2022-10-05T06:28:23.665Z,58.01
2022-10-05T06:29:23.660Z,57.89
2022-10-05T06:30:23.537Z,56.82
2022-10-05T06:31:23.566Z,56.33
2022-10-05T06:32:23.527Z,58.25
2022-10-05T06:33:23.526Z,56.47
2022-10-05T06:34:23.501Z,58.43
2022-10-05T06:35:23.530Z,56.24
2022-10-05T06:36:23.479Z,55.66
2022-10-05T06:37:23.513Z,55.67
2022-10-05T06:38:23.487Z,55.96
2022-10-05T06:39:23.453Z,56.70
2022-10-05T06:40:23.442Z,57.21
2022-10-05T06:41:23.434Z,55.55
2022-10-05T06:42:23.420Z,54.95
2022-10-05T06:43:24.705Z,57.24
2022-10-05T06:44:23.403Z,55.77
2022-10-05T06:45:23.388Z,54.74
2022-10-05T06:46:23.416Z,55.51
2022-10-05T06:47:23.364Z,55.26
2022-10-05T06:48:23.374Z,54.16
2022-10-05T06:49:23.347Z,55.22
2022-10-05T06:50:23.339Z,54.88
2022-10-05T06:51:23.362Z,54.49
2022-10-05T06:52:23.320Z,56.33
2022-10-05T06:53:23.314Z,56.74
2022-10-05T06:54:24.294Z,55.60
2022-10-05T06:55:23.279Z,55.43
2022-10-05T06:56:23.279Z,55.99
2022-10-05T06:57:23.276Z,55.75
2022-10-05T06:58:23.265Z,56.05
2022-10-05T06:59:23.246Z,53.29
2022-10-05T07:00:23.231Z,56.97
2022-10-05T07:01:23.263Z,57.01
2022-10-05T07:02:23.262Z,55.13
2022-10-05T07:03:23.222Z,56.44
2022-10-05T07:04:23.193Z,53.38
2022-10-05T07:05:23.172Z,55.49
2022-10-05T07:06:24.169Z,56.83
2022-10-05T07:07:23.166Z,57.98
2022-10-05T07:08:23.161Z,56.09
2022-10-05T07:09:23.143Z,55.50
2022-10-05T07:10:23.128Z,57.69
2022-10-05T07:11:23.230Z,56.97
2022-10-05T07:12:23.107Z,56.21
2022-10-05T07:13:23.117Z,55.08
2022-10-05T07:14:23.128Z,57.20
2022-10-05T07:15:23.084Z,56.62
2022-10-05T07:16:23.088Z,55.14
2022-10-05T07:17:24.067Z,57.41
2022-10-05T07:18:23.179Z,54.46
2022-10-05T07:19:23.039Z,55.09
2022-10-05T07:20:23.033Z,55.17
2022-10-05T07:21:23.011Z,55.35
2022-10-05T07:22:23.004Z,56.02
2022-10-05T07:23:23.001Z,57.42
2022-10-05T07:24:22.984Z,54.00
2022-10-05T07:25:22.976Z,55.02
2022-10-05T07:26:22.966Z,55.17
2022-10-05T07:27:22.966Z,55.53
2022-10-05T07:28:23.085Z,53.80
2022-10-05T07:29:22.928Z,53.60
2022-10-05T07:30:22.913Z,54.93
2022-10-05T07:31:22.986Z,54.26
2022-10-05T07:32:22.897Z,55.17
2022-10-05T07:33:22.897Z,53.66
2022-10-05T07:34:22.870Z,53.64
2022-10-05T07:35:22.871Z,54.14
2022-10-05T07:36:22.855Z,53.07
2022-10-05T07:37:22.844Z,52.15
2022-10-05T07:38:22.847Z,55.54
2022-10-05T07:39:23.480Z,54.45
2022-10-05T07:40:23.809Z,54.11
2022-10-05T07:41:22.798Z,54.31
2022-10-05T07:42:22.793Z,53.44
2022-10-05T07:43:22.792Z,53.31
2022-10-05T07:44:22.772Z,53.80
2022-10-05T07:45:22.766Z,55.55
2022-10-05T07:46:22.861Z,54.44
2022-10-05T07:47:22.740Z,55.93
2022-10-05T07:48:22.746Z,54.44
2022-10-05T07:49:22.759Z,53.71
2022-10-05T07:50:22.781Z,56.35
2022-10-05T07:51:22.703Z,55.06
2022-10-05T07:52:22.700Z,54.13
2022-10-05T07:53:22.691Z,54.33
2022-10-05T07:54:22.695Z,54.25
2022-10-05T07:55:22.672Z,54.75
2022-10-05T07:56:22.652Z,55.30
2022-10-05T07:57:22.640Z,55.68
2022-10-05T07:58:22.633Z,54.46
2022-10-05T07:59:23.627Z,54.51
2022-10-05T08:00:22.816Z,54.71
2022-10-05T08:01:22.676Z,54.14
2022-10-05T08:02:22.723Z,54.64
2022-10-05T08:03:22.663Z,52.27
2022-10-05T08:04:22.570Z,51.47
2022-10-05T08:05:22.554Z,54.85
2022-10-05T08:06:22.543Z,53.07
2022-10-05T08:08:22.545Z,55.33
2022-10-05T08:09:22.531Z,55.06
2022-10-05T08:10:22.508Z,55.26
2022-10-05T08:11:22.492Z,55.18
2022-10-05T08:12:22.504Z,54.79
2022-10-05T08:13:22.486Z,53.54
2022-10-05T08:14:22.462Z,54.99
2022-10-05T08:15:22.460Z,55.68
2022-10-05T08:16:22.541Z,54.73
2022-10-05T08:17:25.578Z,52.78
2022-10-05T08:18:23.435Z,54.70
2022-10-05T08:19:22.409Z,56.29
2022-10-05T08:20:22.413Z,56.80
2022-10-05T08:21:22.388Z,55.82
2022-10-05T08:22:22.381Z,52.99
2022-10-05T08:23:22.379Z,55.97
2022-10-05T08:24:22.354Z,54.61
2022-10-05T08:25:22.344Z,54.21
2022-10-05T08:26:22.337Z,53.02
2022-10-05T08:27:22.327Z,52.78
2022-10-05T08:28:22.368Z,50.97
2022-10-05T08:29:22.308Z,52.98
2022-10-05T08:30:22.299Z,53.41
2022-10-05T08:31:22.413Z,53.75
2022-10-05T08:32:22.291Z,55.71
2022-10-05T08:33:22.277Z,53.29
2022-10-05T08:34:22.275Z,53.06
2022-10-05T08:35:22.245Z,54.95
2022-10-05T08:36:22.246Z,56.57
2022-10-05T08:37:22.261Z,56.12
2022-10-05T08:38:22.221Z,54.81
2022-10-05T08:39:22.205Z,54.37
2022-10-05T08:40:22.191Z,54.52
2022-10-05T08:41:22.178Z,53.90
2022-10-05T08:42:22.167Z,55.98
2022-10-05T08:43:22.166Z,55.91
2022-10-05T08:44:22.146Z,54.80
2022-10-05T08:45:22.135Z,55.66
2022-10-05T08:46:22.173Z,50.99
2022-10-05T08:47:22.110Z,55.45
2022-10-05T08:48:22.114Z,54.55
2022-10-05T08:49:22.088Z,54.08
2022-10-05T08:50:22.082Z,56.71
2022-10-05T08:51:22.068Z,54.41
2022-10-05T08:52:22.058Z,53.04
2022-10-05T08:53:22.074Z,54.92
2022-10-05T08:54:22.041Z,52.46
2022-10-05T08:55:22.029Z,53.56
2022-10-05T08:56:26.351Z,57.29
2022-10-05T08:57:24.028Z,56.86
2022-10-05T08:58:22.014Z,54.85
2022-10-05T08:59:21.992Z,56.71
2022-10-05T09:00:21.984Z,55.20
2022-10-05T09:01:22.074Z,53.92
2022-10-05T09:02:21.988Z,54.63
2022-10-05T09:03:22.960Z,54.45
2022-10-05T09:04:21.946Z,55.47
2022-10-05T09:05:21.929Z,56.02
2022-10-05T09:06:21.922Z,53.30
2022-10-05T09:07:21.927Z,53.30
2022-10-05T09:08:21.915Z,56.11
2022-10-05T09:09:21.883Z,54.08
2022-10-05T09:10:21.871Z,56.06
2022-10-05T09:11:21.900Z,55.53
2022-10-05T09:12:21.854Z,54.10
2022-10-05T09:13:21.918Z,55.47
2022-10-05T09:14:21.836Z,56.49
2022-10-05T09:15:27.161Z,55.44
2022-10-05T09:16:23.899Z,54.39
2022-10-05T09:17:21.808Z,55.19
2022-10-05T09:18:21.811Z,57.11
2022-10-05T09:19:21.783Z,54.65
2022-10-05T09:20:21.777Z,55.97
2022-10-05T09:21:22.769Z,54.94
2022-10-05T09:22:21.756Z,55.27
2022-10-05T09:23:21.753Z,56.19
2022-10-05T09:24:21.755Z,57.24
2022-10-05T09:25:21.724Z,55.97
2022-10-05T09:26:21.716Z,55.92
2022-10-05T09:27:22.706Z,56.28
2022-10-05T09:28:21.771Z,57.94
2022-10-05T09:29:21.678Z,54.27
2022-10-05T09:30:21.671Z,55.20
2022-10-05T09:31:21.709Z,56.63
2022-10-05T09:32:21.651Z,57.53
2022-10-05T09:33:21.648Z,58.30
2022-10-05T09:34:21.644Z,56.91
2022-10-05T09:35:21.728Z,57.77
2022-10-05T09:36:21.602Z,57.18
2022-10-05T09:37:21.596Z,56.93
2022-10-05T09:38:21.603Z,56.50
2022-10-05T09:39:21.577Z,58.82
2022-10-05T09:40:21.565Z,58.05
2022-10-05T09:41:21.565Z,56.52
2022-10-05T09:42:21.553Z,57.06
2022-10-05T09:43:21.551Z,57.75
2022-10-05T09:44:21.522Z,57.90
2022-10-05T09:45:21.747Z,56.72
2022-10-05T09:46:21.571Z,57.64
2022-10-05T09:47:21.490Z,57.01
2022-10-05T09:48:21.492Z,56.44
2022-10-05T09:49:21.471Z,56.91
2022-10-05T09:50:21.477Z,58.64
2022-10-05T09:51:21.470Z,58.92
2022-10-05T09:52:21.439Z,58.72
2022-10-05T09:53:21.450Z,56.65
2022-10-05T09:54:21.424Z,57.25
2022-10-05T09:55:21.414Z,57.16
2022-10-05T09:56:21.412Z,57.50
2022-10-05T09:57:21.397Z,57.98
2022-10-05T09:58:21.392Z,58.69
2022-10-05T09:59:21.372Z,57.38
2022-10-05T10:00:21.364Z,56.71
2022-10-05T10:01:33.157Z,59.94
2022-10-05T10:02:23.424Z,57.89
2022-10-05T10:03:21.446Z,58.44
2022-10-05T10:04:21.327Z,57.63
2022-10-05T10:05:21.312Z,56.89
2022-10-05T10:06:21.305Z,57.01
2022-10-05T10:07:21.303Z,57.69
2022-10-05T10:08:21.299Z,55.13
2022-10-05T10:09:21.273Z,58.76
2022-10-05T10:10:21.263Z,59.31
2022-10-05T10:11:21.256Z,58.36
2022-10-05T10:12:21.246Z,57.52
2022-10-05T10:13:21.243Z,58.47
2022-10-05T10:14:21.239Z,59.58
2022-10-05T10:15:22.209Z,58.02
2022-10-05T10:16:21.291Z,59.62
2022-10-05T10:17:21.190Z,59.37
2022-10-05T10:18:21.190Z,58.65
2022-10-05T10:19:21.172Z,57.24
2022-10-05T10:20:21.164Z,58.78
2022-10-05T10:21:21.148Z,58.51
2022-10-05T10:22:21.141Z,57.65
2022-10-05T10:23:21.145Z,58.13
2022-10-05T10:24:21.120Z,58.31
2022-10-05T10:25:21.107Z,58.40
2022-10-05T10:26:21.096Z,58.73
2022-10-05T10:27:21.090Z,57.38
2022-10-05T10:28:21.129Z,60.59
2022-10-05T10:29:21.129Z,58.25
2022-10-05T10:30:21.882Z,56.92
2022-10-05T10:31:21.109Z,60.54
2022-10-05T10:32:21.052Z,60.50
2022-10-05T10:33:21.039Z,58.99
2022-10-05T10:34:21.029Z,58.66
2022-10-05T10:35:21.046Z,57.67
2022-10-05T10:36:21.000Z,59.94
2022-10-05T10:37:21.003Z,60.34
2022-10-05T10:38:20.998Z,59.81
2022-10-05T10:39:21.034Z,58.40
2022-10-05T10:40:20.962Z,58.27
2022-10-05T10:41:20.953Z,59.75
2022-10-05T10:42:26.000Z,58.25
2022-10-05T10:43:22.937Z,56.48
2022-10-05T10:44:20.931Z,60.10
2022-10-05T10:45:20.905Z,60.42
2022-10-05T10:46:20.958Z,60.96
2022-10-05T10:47:20.886Z,59.50
2022-10-05T10:48:20.885Z,58.96
2022-10-05T10:49:20.865Z,59.43
2022-10-05T10:50:20.867Z,61.12
2022-10-05T10:51:20.843Z,60.21
2022-10-05T10:52:20.839Z,58.49
2022-10-05T10:53:20.832Z,59.38
2022-10-05T10:54:20.819Z,60.58
2022-10-05T10:55:20.877Z,60.34
2022-10-05T10:56:20.816Z,59.62
2022-10-05T10:57:20.793Z,58.30
2022-10-05T10:58:20.843Z,59.85
2022-10-05T10:59:20.764Z,60.13
2022-10-05T11:00:20.754Z,61.54
2022-10-05T11:01:20.812Z,61.03
2022-10-05T11:02:20.808Z,61.56
2022-10-05T11:03:20.734Z,61.21
2022-10-05T11:04:20.716Z,61.47
2022-10-05T11:05:20.706Z,60.10
2022-10-05T11:06:20.717Z,58.45
2022-10-05T11:07:20.707Z,61.26
2022-10-05T11:08:20.691Z,62.52
2022-10-05T11:09:20.671Z,60.94
2022-10-05T11:10:21.668Z,59.69
2022-10-05T11:11:20.665Z,61.36
2022-10-05T11:12:20.642Z,60.73
2022-10-05T11:13:20.647Z,61.65
2022-10-05T11:14:20.621Z,61.61
2022-10-05T11:15:20.613Z,60.36
2022-10-05T11:16:20.596Z,61.05
2022-10-05T11:17:20.605Z,61.39
2022-10-05T11:18:21.781Z,61.43
2022-10-05T11:19:20.569Z,62.02
2022-10-05T11:20:20.558Z,61.55
2022-10-05T11:21:20.548Z,62.00
2022-10-05T11:22:20.588Z,61.71
2022-10-05T11:23:20.577Z,60.67
2022-10-05T11:24:20.517Z,62.12
2022-10-05T11:25:20.512Z,62.27
2022-10-05T11:26:20.511Z,61.54
2022-10-05T11:28:20.565Z,63.01
2022-10-05T11:29:20.471Z,63.46
2022-10-05T11:30:20.459Z,62.14
2022-10-05T11:31:20.551Z,62.33
2022-10-05T11:32:20.435Z,62.96
2022-10-05T11:33:20.443Z,63.30
2022-10-05T11:34:20.418Z,61.58
2022-10-05T11:35:20.407Z,60.14
2022-10-05T11:36:20.399Z,60.93
2022-10-05T11:37:20.393Z,62.62
2022-10-05T11:38:20.379Z,62.43
2022-10-05T11:39:20.382Z,63.72
2022-10-05T11:40:20.531Z,62.38
2022-10-05T11:41:20.381Z,62.10
2022-10-05T11:42:20.336Z,63.01
2022-10-05T11:43:20.367Z,63.75
2022-10-05T11:44:20.330Z,62.68
2022-10-05T11:45:20.309Z,62.77
2022-10-05T11:46:20.347Z,62.64
2022-10-05T11:47:20.289Z,59.39
2022-10-05T11:48:20.281Z,63.18
2022-10-05T11:49:20.283Z,61.77
2022-10-05T11:50:20.261Z,62.43
2022-10-05T11:51:22.083Z,61.79
2022-10-05T11:52:20.246Z,61.02
2022-10-05T11:53:20.244Z,62.47
2022-10-05T11:54:20.232Z,62.88
2022-10-05T11:55:20.223Z,64.19
2022-10-05T11:56:20.255Z,62.83
2022-10-05T11:57:20.186Z,62.33
2022-10-05T11:58:20.178Z,63.26
2022-10-05T11:59:20.179Z,63.80
2022-10-05T12:00:20.174Z,62.97
2022-10-05T12:01:20.149Z,62.36
2022-10-05T12:02:20.136Z,63.10
2022-10-05T12:03:20.267Z,62.77
2022-10-05T12:04:20.209Z,62.46
2022-10-05T12:05:20.212Z,61.99
2022-10-05T12:06:20.102Z,62.57
2022-10-05T12:07:20.107Z,61.75
2022-10-05T12:08:20.079Z,62.59
2022-10-05T12:09:20.083Z,62.67
2022-10-05T12:10:20.061Z,62.56
2022-10-05T12:11:20.143Z,62.79
2022-10-05T12:12:20.042Z,63.85
2022-10-05T12:13:20.052Z,62.51
2022-10-05T12:14:20.034Z,63.90
2022-10-05T12:15:20.033Z,63.91
2022-10-05T12:16:20.118Z,62.31
2022-10-05T12:17:19.996Z,64.19
2022-10-05T12:18:19.981Z,65.69
2022-10-05T12:19:19.981Z,63.89
2022-10-05T12:20:19.958Z,63.82
2022-10-05T12:21:19.950Z,61.68
2022-10-05T12:22:19.936Z,62.20
2022-10-05T12:23:19.930Z,65.67
2022-10-05T12:24:24.578Z,61.84
2022-10-05T12:25:21.903Z,62.17
2022-10-05T12:26:20.901Z,61.97
2022-10-05T12:27:19.890Z,63.42
2022-10-05T12:28:19.905Z,62.89
2022-10-05T12:29:19.887Z,63.29
2022-10-05T12:30:19.857Z,63.26
2022-10-05T12:31:19.891Z,63.55
2022-10-05T12:32:19.866Z,62.83
2022-10-05T12:33:19.831Z,63.09
2022-10-05T12:34:19.833Z,63.52
2022-10-05T12:35:36.511Z,63.07
2022-10-05T12:36:21.805Z,63.87
2022-10-05T12:37:19.798Z,62.96
2022-10-05T12:38:19.784Z,61.34
2022-10-05T12:39:19.786Z,63.58
2022-10-05T12:40:19.768Z,62.91
2022-10-05T12:41:19.753Z,61.73
2022-10-05T12:42:19.739Z,62.69
2022-10-05T12:43:19.740Z,60.10
2022-10-05T12:44:19.785Z,63.06
2022-10-05T12:45:19.718Z,62.97
2022-10-05T12:46:19.706Z,63.43
2022-10-05T12:47:19.697Z,63.36
2022-10-05T12:48:19.687Z,63.33
2022-10-05T12:49:19.680Z,63.09
2022-10-05T12:50:19.664Z,64.10
2022-10-05T12:51:19.660Z,63.49
2022-10-05T12:52:19.643Z,62.81
2022-10-05T12:53:19.630Z,62.52
2022-10-05T12:54:19.642Z,62.23